sensor_id;sensor_type;location;lat;lon;timestamp;P1;durP1;ratioP1;P2;durP2;ratioP2
4553;SDS011;2289;48.316;15.174;2023-10-31T00:00:06;17.80;;;8.70;;
4553;SDS011;2289;48.316;15.174;2023-10-31T00:02:39;13.83;;;8.27;;
4553;SDS011;2289;48.316;15.174;2023-10-31T00:05:08;19.70;;;10.33;;
4553;SDS011;2289;48.316;15.174;2023-10-31T00:07:37;26.60;;;14.47;;
4553;SDS011;2289;48.316;15.174;2023-10-31T00:10:07;25.80;;;15.70;;
4553;SDS011;2289;48.316;15.174;2023-10-31T00:12:37;22.67;;;13.60;;
4553;SDS011;2289;48.316;15.174;2023-10-31T00:15:06;18.17;;;11.13;;
4553;SDS011;2289;48.316;15.174;2023-10-31T00:17:35;14.67;;;8.57;;
4553;SDS011;2289;48.316;15.174;2023-10-31T00:20:07;12.03;;;7.10;;
4553;SDS011;2289;48.316;15.174;2023-10-31T00:22:36;9.50;;;5.73;;
4553;SDS011;2289;48.316;15.174;2023-10-31T00:25:06;9.17;;;4.10;;
4553;SDS011;2289;48.316;15.174;2023-10-31T00:27:35;3.97;;;2.80;;
4553;SDS011;2289;48.316;15.174;2023-10-31T00:30:04;9.23;;;3.27;;
4553;SDS011;2289;48.316;15.174;2023-10-31T00:32:34;4.10;;;2.30;;
4553;SDS011;2289;48.316;15.174;2023-10-31T00:35:03;7.67;;;2.50;;
4553;SDS011;2289;48.316;15.174;2023-10-31T00:37:33;5.20;;;3.10;;
4553;SDS011;2289;48.316;15.174;2023-10-31T00:40:04;4.83;;;2.20;;
4553;SDS011;2289;48.316;15.174;2023-10-31T00:42:34;5.90;;;3.00;;
4553;SDS011;2289;48.316;15.174;2023-10-31T00:45:03;7.70;;;2.80;;
4553;SDS011;2289;48.316;15.174;2023-10-31T00:47:33;5.37;;;2.83;;
4553;SDS011;2289;48.316;15.174;2023-10-31T00:50:03;8.40;;;2.80;;
4553;SDS011;2289;48.316;15.174;2023-10-31T00:52:34;2.67;;;1.97;;
4553;SDS011;2289;48.316;15.174;2023-10-31T00:55:06;6.30;;;2.70;;
4553;SDS011;2289;48.316;15.174;2023-10-31T00:57:36;6.53;;;2.23;;
4553;SDS011;2289;48.316;15.174;2023-10-31T01:00:07;4.00;;;3.07;;
4553;SDS011;2289;48.316;15.174;2023-10-31T01:02:36;7.17;;;3.97;;
4553;SDS011;2289;48.316;15.174;2023-10-31T01:05:05;7.93;;;4.37;;
4553;SDS011;2289;48.316;15.174;2023-10-31T01:07:36;6.13;;;3.40;;
4553;SDS011;2289;48.316;15.174;2023-10-31T01:10:05;8.40;;;5.17;;
4553;SDS011;2289;48.316;15.174;2023-10-31T01:12:35;5.10;;;3.67;;
4553;SDS011;2289;48.316;15.174;2023-10-31T01:15:04;5.60;;;2.90;;
4553;SDS011;2289;48.316;15.174;2023-10-31T01:17:34;9.77;;;2.70;;
4553;SDS011;2289;48.316;15.174;2023-10-31T01:20:03;6.77;;;3.13;;
4553;SDS011;2289;48.316;15.174;2023-10-31T01:22:33;2.67;;;2.43;;
4553;SDS011;2289;48.316;15.174;2023-10-31T01:25:04;3.47;;;2.07;;
4553;SDS011;2289;48.316;15.174;2023-10-31T01:27:33;6.27;;;2.50;;
4553;SDS011;2289;48.316;15.174;2023-10-31T01:30:03;3.07;;;2.80;;
4553;SDS011;2289;48.316;15.174;2023-10-31T01:32:32;6.30;;;3.80;;
4553;SDS011;2289;48.316;15.174;2023-10-31T01:35:01;8.50;;;5.50;;
4553;SDS011;2289;48.316;15.174;2023-10-31T01:37:31;6.80;;;5.00;;
4553;SDS011;2289;48.316;15.174;2023-10-31T01:40:00;8.30;;;5.07;;
4553;SDS011;2289;48.316;15.174;2023-10-31T01:42:30;6.67;;;6.07;;
4553;SDS011;2289;48.316;15.174;2023-10-31T01:44:59;6.13;;;5.53;;
4553;SDS011;2289;48.316;15.174;2023-10-31T01:47:29;7.77;;;6.90;;
4553;SDS011;2289;48.316;15.174;2023-10-31T01:49:58;10.77;;;7.00;;
4553;SDS011;2289;48.316;15.174;2023-10-31T01:52:27;8.53;;;7.67;;
4553;SDS011;2289;48.316;15.174;2023-10-31T01:54:59;6.73;;;6.13;;
4553;SDS011;2289;48.316;15.174;2023-10-31T01:57:30;7.77;;;7.07;;
4553;SDS011;2289;48.316;15.174;2023-10-31T02:00:01;7.47;;;6.77;;
4553;SDS011;2289;48.316;15.174;2023-10-31T02:02:30;13.80;;;8.10;;
4553;SDS011;2289;48.316;15.174;2023-10-31T02:05:01;9.50;;;8.60;;
4553;SDS011;2289;48.316;15.174;2023-10-31T02:07:30;8.70;;;7.90;;
4553;SDS011;2289;48.316;15.174;2023-10-31T02:10:02;8.63;;;7.93;;
4553;SDS011;2289;48.316;15.174;2023-10-31T02:12:32;7.20;;;6.70;;
4553;SDS011;2289;48.316;15.174;2023-10-31T02:15:02;9.77;;;8.80;;
4553;SDS011;2289;48.316;15.174;2023-10-31T02:17:32;8.00;;;7.20;;
4553;SDS011;2289;48.316;15.174;2023-10-31T02:20:01;8.00;;;7.20;;
4553;SDS011;2289;48.316;15.174;2023-10-31T02:22:31;7.23;;;6.60;;
4553;SDS011;2289;48.316;15.174;2023-10-31T02:25:00;6.53;;;5.93;;
4553;SDS011;2289;48.316;15.174;2023-10-31T02:27:28;9.50;;;6.40;;
4553;SDS011;2289;48.316;15.174;2023-10-31T02:29:57;6.03;;;5.37;;
4553;SDS011;2289;48.316;15.174;2023-10-31T02:32:26;4.30;;;4.00;;
4553;SDS011;2289;48.316;15.174;2023-10-31T02:34:55;4.37;;;3.97;;
4553;SDS011;2289;48.316;15.174;2023-10-31T02:37:25;5.77;;;5.17;;
4553;SDS011;2289;48.316;15.174;2023-10-31T02:39:55;4.80;;;4.40;;
4553;SDS011;2289;48.316;15.174;2023-10-31T02:42:24;4.40;;;4.00;;
4553;SDS011;2289;48.316;15.174;2023-10-31T02:44:55;4.37;;;3.97;;
4553;SDS011;2289;48.316;15.174;2023-10-31T02:47:24;3.97;;;3.60;;
4553;SDS011;2289;48.316;15.174;2023-10-31T02:49:53;5.50;;;3.87;;
4553;SDS011;2289;48.316;15.174;2023-10-31T02:52:22;3.50;;;3.20;;
4553;SDS011;2289;48.316;15.174;2023-10-31T02:54:50;4.53;;;2.87;;
4553;SDS011;2289;48.316;15.174;2023-10-31T02:57:21;3.90;;;2.80;;
4553;SDS011;2289;48.316;15.174;2023-10-31T02:59:50;2.83;;;2.63;;
4553;SDS011;2289;48.316;15.174;2023-10-31T03:02:19;2.60;;;2.00;;
4553;SDS011;2289;48.316;15.174;2023-10-31T03:04:48;3.10;;;1.90;;
4553;SDS011;2289;48.316;15.174;2023-10-31T03:07:17;4.30;;;2.10;;
4553;SDS011;2289;48.316;15.174;2023-10-31T03:09:46;1.77;;;1.67;;
4553;SDS011;2289;48.316;15.174;2023-10-31T03:12:14;1.23;;;1.13;;
4553;SDS011;2289;48.316;15.174;2023-10-31T03:14:45;3.67;;;2.20;;
4553;SDS011;2289;48.316;15.174;2023-10-31T03:17:13;6.50;;;1.90;;
4553;SDS011;2289;48.316;15.174;2023-10-31T03:19:42;3.07;;;2.13;;
4553;SDS011;2289;48.316;15.174;2023-10-31T03:22:11;3.13;;;2.57;;
4553;SDS011;2289;48.316;15.174;2023-10-31T03:24:40;6.27;;;4.93;;
4553;SDS011;2289;48.316;15.174;2023-10-31T03:27:10;2.00;;;1.90;;
4553;SDS011;2289;48.316;15.174;2023-10-31T03:29:38;3.90;;;1.67;;
4553;SDS011;2289;48.316;15.174;2023-10-31T03:32:08;1.27;;;1.17;;
4553;SDS011;2289;48.316;15.174;2023-10-31T03:34:37;1.63;;;1.30;;
4553;SDS011;2289;48.316;15.174;2023-10-31T03:37:07;2.10;;;1.77;;
4553;SDS011;2289;48.316;15.174;2023-10-31T03:39:36;1.73;;;1.20;;
4553;SDS011;2289;48.316;15.174;2023-10-31T03:42:04;1.40;;;0.90;;
4553;SDS011;2289;48.316;15.174;2023-10-31T03:44:33;1.40;;;1.30;;
4553;SDS011;2289;48.316;15.174;2023-10-31T03:47:02;1.10;;;1.00;;
4553;SDS011;2289;48.316;15.174;2023-10-31T03:49:32;1.70;;;1.33;;
4553;SDS011;2289;48.316;15.174;2023-10-31T03:52:01;2.20;;;1.00;;
4553;SDS011;2289;48.316;15.174;2023-10-31T03:54:34;1.43;;;1.33;;
4553;SDS011;2289;48.316;15.174;2023-10-31T03:57:03;1.30;;;1.20;;
4553;SDS011;2289;48.316;15.174;2023-10-31T03:59:32;0.97;;;0.97;;
4553;SDS011;2289;48.316;15.174;2023-10-31T04:02:01;1.30;;;1.20;;
4553;SDS011;2289;48.316;15.174;2023-10-31T04:04:32;1.20;;;1.10;;
4553;SDS011;2289;48.316;15.174;2023-10-31T04:07:01;1.80;;;1.40;;
4553;SDS011;2289;48.316;15.174;2023-10-31T04:09:30;1.67;;;1.57;;
4553;SDS011;2289;48.316;15.174;2023-10-31T04:11:59;1.43;;;1.33;;
4553;SDS011;2289;48.316;15.174;2023-10-31T04:14:28;1.37;;;1.27;;
4553;SDS011;2289;48.316;15.174;2023-10-31T04:16:57;1.40;;;1.30;;
4553;SDS011;2289;48.316;15.174;2023-10-31T04:19:26;1.60;;;1.50;;
4553;SDS011;2289;48.316;15.174;2023-10-31T04:21:56;3.20;;;1.20;;
4553;SDS011;2289;48.316;15.174;2023-10-31T04:24:24;1.47;;;1.37;;
4553;SDS011;2289;48.316;15.174;2023-10-31T04:26:54;1.37;;;1.20;;
4553;SDS011;2289;48.316;15.174;2023-10-31T04:29:22;1.67;;;1.50;;
4553;SDS011;2289;48.316;15.174;2023-10-31T04:31:51;1.20;;;1.07;;
4553;SDS011;2289;48.316;15.174;2023-10-31T04:34:20;1.40;;;1.17;;
4553;SDS011;2289;48.316;15.174;2023-10-31T04:36:50;1.30;;;1.20;;
4553;SDS011;2289;48.316;15.174;2023-10-31T04:39:19;1.23;;;1.20;;
4553;SDS011;2289;48.316;15.174;2023-10-31T04:41:49;1.77;;;1.67;;
4553;SDS011;2289;48.316;15.174;2023-10-31T04:44:17;1.90;;;1.80;;
4553;SDS011;2289;48.316;15.174;2023-10-31T04:46:46;3.03;;;1.57;;
4553;SDS011;2289;48.316;15.174;2023-10-31T04:49:15;1.80;;;1.30;;
4553;SDS011;2289;48.316;15.174;2023-10-31T04:51:44;1.17;;;1.07;;
4553;SDS011;2289;48.316;15.174;2023-10-31T04:54:13;5.33;;;1.30;;
4553;SDS011;2289;48.316;15.174;2023-10-31T04:56:44;2.40;;;2.17;;
4553;SDS011;2289;48.316;15.174;2023-10-31T04:59:12;1.50;;;1.40;;
4553;SDS011;2289;48.316;15.174;2023-10-31T05:01:41;1.07;;;1.00;;
4553;SDS011;2289;48.316;15.174;2023-10-31T05:04:12;1.57;;;1.20;;
4553;SDS011;2289;48.316;15.174;2023-10-31T05:06:41;1.10;;;0.83;;
4553;SDS011;2289;48.316;15.174;2023-10-31T05:09:09;1.10;;;0.90;;
4553;SDS011;2289;48.316;15.174;2023-10-31T05:11:39;0.80;;;0.60;;
4553;SDS011;2289;48.316;15.174;2023-10-31T05:14:09;0.70;;;0.70;;
4553;SDS011;2289;48.316;15.174;2023-10-31T05:16:40;0.80;;;0.73;;
4553;SDS011;2289;48.316;15.174;2023-10-31T05:19:09;3.00;;;0.80;;
4553;SDS011;2289;48.316;15.174;2023-10-31T05:21:38;1.10;;;1.10;;
4553;SDS011;2289;48.316;15.174;2023-10-31T05:24:08;0.70;;;0.70;;
4553;SDS011;2289;48.316;15.174;2023-10-31T05:26:36;1.23;;;0.80;;
4553;SDS011;2289;48.316;15.174;2023-10-31T05:29:13;0.60;;;0.60;;
4553;SDS011;2289;48.316;15.174;2023-10-31T05:31:41;0.80;;;0.80;;
4553;SDS011;2289;48.316;15.174;2023-10-31T05:34:11;0.67;;;0.67;;
4553;SDS011;2289;48.316;15.174;2023-10-31T05:36:39;1.40;;;1.07;;
4553;SDS011;2289;48.316;15.174;2023-10-31T05:39:08;1.57;;;0.73;;
4553;SDS011;2289;48.316;15.174;2023-10-31T05:41:37;0.97;;;0.90;;
4553;SDS011;2289;48.316;15.174;2023-10-31T05:44:05;0.80;;;0.80;;
4553;SDS011;2289;48.316;15.174;2023-10-31T05:46:38;0.80;;;0.80;;
4553;SDS011;2289;48.316;15.174;2023-10-31T05:49:24;0.70;;;0.70;;
4553;SDS011;2289;48.316;15.174;2023-10-31T05:51:53;0.87;;;0.87;;
4553;SDS011;2289;48.316;15.174;2023-10-31T05:54:22;0.60;;;0.60;;
4553;SDS011;2289;48.316;15.174;2023-10-31T05:56:51;0.70;;;0.70;;
4553;SDS011;2289;48.316;15.174;2023-10-31T05:59:20;1.37;;;0.80;;
4553;SDS011;2289;48.316;15.174;2023-10-31T06:01:50;0.97;;;0.80;;
4553;SDS011;2289;48.316;15.174;2023-10-31T06:04:21;1.00;;;1.00;;
4553;SDS011;2289;48.316;15.174;2023-10-31T06:06:51;0.73;;;0.73;;
4553;SDS011;2289;48.316;15.174;2023-10-31T06:09:21;1.57;;;0.70;;
4553;SDS011;2289;48.316;15.174;2023-10-31T06:11:50;1.13;;;1.07;;
4553;SDS011;2289;48.316;15.174;2023-10-31T06:14:21;1.10;;;0.87;;
4553;SDS011;2289;48.316;15.174;2023-10-31T06:16:51;0.90;;;0.80;;
4553;SDS011;2289;48.316;15.174;2023-10-31T06:19:20;0.93;;;0.80;;
4553;SDS011;2289;48.316;15.174;2023-10-31T06:21:49;0.80;;;0.80;;
4553;SDS011;2289;48.316;15.174;2023-10-31T06:24:18;1.47;;;0.97;;
4553;SDS011;2289;48.316;15.174;2023-10-31T06:26:47;0.93;;;0.90;;
4553;SDS011;2289;48.316;15.174;2023-10-31T06:29:15;1.47;;;1.00;;
4553;SDS011;2289;48.316;15.174;2023-10-31T06:32:06;1.10;;;1.00;;
4553;SDS011;2289;48.316;15.174;2023-10-31T06:34:34;1.40;;;1.30;;
4553;SDS011;2289;48.316;15.174;2023-10-31T06:37:03;1.33;;;1.23;;
4553;SDS011;2289;48.316;15.174;2023-10-31T06:39:32;1.13;;;1.03;;
4553;SDS011;2289;48.316;15.174;2023-10-31T06:42:01;1.30;;;1.20;;
4553;SDS011;2289;48.316;15.174;2023-10-31T06:44:30;1.10;;;1.00;;
4553;SDS011;2289;48.316;15.174;2023-10-31T06:46:58;1.17;;;1.17;;
4553;SDS011;2289;48.316;15.174;2023-10-31T06:49:28;1.60;;;1.50;;
4553;SDS011;2289;48.316;15.174;2023-10-31T06:51:57;1.67;;;1.57;;
4553;SDS011;2289;48.316;15.174;2023-10-31T06:54:29;1.53;;;1.43;;
4553;SDS011;2289;48.316;15.174;2023-10-31T06:56:58;1.23;;;1.13;;
4553;SDS011;2289;48.316;15.174;2023-10-31T06:59:28;2.00;;;1.90;;
4553;SDS011;2289;48.316;15.174;2023-10-31T07:01:57;1.47;;;1.37;;
4553;SDS011;2289;48.316;15.174;2023-10-31T07:04:29;1.57;;;1.47;;
4553;SDS011;2289;48.316;15.174;2023-10-31T07:06:57;1.63;;;1.53;;
4553;SDS011;2289;48.316;15.174;2023-10-31T07:09:25;1.37;;;1.27;;
4553;SDS011;2289;48.316;15.174;2023-10-31T07:11:54;1.50;;;1.40;;
4553;SDS011;2289;48.316;15.174;2023-10-31T07:14:24;1.70;;;1.60;;
4553;SDS011;2289;48.316;15.174;2023-10-31T07:16:53;1.63;;;1.53;;
4553;SDS011;2289;48.316;15.174;2023-10-31T07:19:21;1.80;;;1.70;;
4553;SDS011;2289;48.316;15.174;2023-10-31T07:21:51;1.70;;;1.60;;
4553;SDS011;2289;48.316;15.174;2023-10-31T07:24:20;1.57;;;1.30;;
4553;SDS011;2289;48.316;15.174;2023-10-31T07:26:48;3.00;;;2.43;;
4553;SDS011;2289;48.316;15.174;2023-10-31T07:29:17;1.67;;;1.57;;
4553;SDS011;2289;48.316;15.174;2023-10-31T07:31:46;3.57;;;2.10;;
4553;SDS011;2289;48.316;15.174;2023-10-31T07:34:15;2.63;;;2.40;;
4553;SDS011;2289;48.316;15.174;2023-10-31T07:36:44;4.57;;;2.70;;
4553;SDS011;2289;48.316;15.174;2023-10-31T07:39:14;1.77;;;1.67;;
4553;SDS011;2289;48.316;15.174;2023-10-31T07:41:42;1.70;;;1.40;;
4553;SDS011;2289;48.316;15.174;2023-10-31T07:44:11;1.60;;;1.50;;
4553;SDS011;2289;48.316;15.174;2023-10-31T07:46:41;1.60;;;1.50;;
4553;SDS011;2289;48.316;15.174;2023-10-31T07:49:09;1.50;;;1.40;;
4553;SDS011;2289;48.316;15.174;2023-10-31T07:51:38;2.00;;;1.90;;
4553;SDS011;2289;48.316;15.174;2023-10-31T07:54:07;2.63;;;2.37;;
4553;SDS011;2289;48.316;15.174;2023-10-31T07:56:38;2.03;;;1.93;;
4553;SDS011;2289;48.316;15.174;2023-10-31T07:59:07;1.70;;;1.60;;
4553;SDS011;2289;48.316;15.174;2023-10-31T08:01:37;1.93;;;1.83;;
4553;SDS011;2289;48.316;15.174;2023-10-31T08:04:06;2.10;;;2.00;;
4553;SDS011;2289;48.316;15.174;2023-10-31T08:06:35;2.20;;;2.10;;
4553;SDS011;2289;48.316;15.174;2023-10-31T08:09:04;3.03;;;2.83;;
4553;SDS011;2289;48.316;15.174;2023-10-31T08:11:35;2.27;;;2.17;;
4553;SDS011;2289;48.316;15.174;2023-10-31T08:14:06;2.63;;;2.23;;
4553;SDS011;2289;48.316;15.174;2023-10-31T08:16:35;2.60;;;2.50;;
4553;SDS011;2289;48.316;15.174;2023-10-31T08:19:07;7.13;;;2.67;;
4553;SDS011;2289;48.316;15.174;2023-10-31T08:21:37;3.37;;;3.07;;
4553;SDS011;2289;48.316;15.174;2023-10-31T08:24:08;2.70;;;2.50;;
4553;SDS011;2289;48.316;15.174;2023-10-31T08:26:37;3.17;;;2.97;;
4553;SDS011;2289;48.316;15.174;2023-10-31T08:29:07;2.73;;;2.60;;
4553;SDS011;2289;48.316;15.174;2023-10-31T08:31:36;3.30;;;3.00;;
4553;SDS011;2289;48.316;15.174;2023-10-31T08:34:04;2.60;;;2.50;;
4553;SDS011;2289;48.316;15.174;2023-10-31T08:36:33;2.40;;;2.20;;
4553;SDS011;2289;48.316;15.174;2023-10-31T08:39:02;2.37;;;2.27;;
4553;SDS011;2289;48.316;15.174;2023-10-31T08:41:31;2.60;;;2.47;;
4553;SDS011;2289;48.316;15.174;2023-10-31T08:44:01;2.40;;;2.27;;
4553;SDS011;2289;48.316;15.174;2023-10-31T08:46:32;2.13;;;1.93;;
4553;SDS011;2289;48.316;15.174;2023-10-31T08:49:01;2.77;;;2.57;;
4553;SDS011;2289;48.316;15.174;2023-10-31T08:51:30;2.07;;;1.97;;
4553;SDS011;2289;48.316;15.174;2023-10-31T08:53:58;2.60;;;2.50;;
4553;SDS011;2289;48.316;15.174;2023-10-31T08:56:27;2.97;;;2.70;;
4553;SDS011;2289;48.316;15.174;2023-10-31T08:58:56;2.27;;;2.10;;
4553;SDS011;2289;48.316;15.174;2023-10-31T09:01:24;1.60;;;1.50;;
4553;SDS011;2289;48.316;15.174;2023-10-31T09:03:54;1.50;;;1.40;;
4553;SDS011;2289;48.316;15.174;2023-10-31T09:06:25;1.83;;;1.40;;
4553;SDS011;2289;48.316;15.174;2023-10-31T09:08:54;1.33;;;1.23;;
4553;SDS011;2289;48.316;15.174;2023-10-31T09:11:23;1.83;;;1.73;;
4553;SDS011;2289;48.316;15.174;2023-10-31T09:13:52;2.30;;;1.77;;
4553;SDS011;2289;48.316;15.174;2023-10-31T09:16:21;1.50;;;1.40;;
4553;SDS011;2289;48.316;15.174;2023-10-31T09:18:50;1.37;;;1.27;;
4553;SDS011;2289;48.316;15.174;2023-10-31T09:21:20;1.47;;;1.00;;
4553;SDS011;2289;48.316;15.174;2023-10-31T09:23:49;1.57;;;1.00;;
4553;SDS011;2289;48.316;15.174;2023-10-31T09:26:19;1.13;;;0.97;;
4553;SDS011;2289;48.316;15.174;2023-10-31T09:28:48;1.10;;;1.00;;
4553;SDS011;2289;48.316;15.174;2023-10-31T09:31:18;0.80;;;0.80;;
4553;SDS011;2289;48.316;15.174;2023-10-31T09:33:47;0.87;;;0.87;;
4553;SDS011;2289;48.316;15.174;2023-10-31T09:36:16;1.37;;;1.10;;
4553;SDS011;2289;48.316;15.174;2023-10-31T09:38:46;1.03;;;0.97;;
4553;SDS011;2289;48.316;15.174;2023-10-31T09:41:16;1.40;;;1.20;;
4553;SDS011;2289;48.316;15.174;2023-10-31T09:43:46;1.10;;;0.90;;
4553;SDS011;2289;48.316;15.174;2023-10-31T09:46:15;3.20;;;1.37;;
4553;SDS011;2289;48.316;15.174;2023-10-31T09:48:44;0.93;;;0.80;;
4553;SDS011;2289;48.316;15.174;2023-10-31T09:51:13;1.13;;;0.90;;
4553;SDS011;2289;48.316;15.174;2023-10-31T09:53:43;1.27;;;0.87;;
4553;SDS011;2289;48.316;15.174;2023-10-31T09:56:14;1.77;;;0.90;;
4553;SDS011;2289;48.316;15.174;2023-10-31T09:58:44;0.70;;;0.70;;
4553;SDS011;2289;48.316;15.174;2023-10-31T10:01:14;0.80;;;0.80;;
4553;SDS011;2289;48.316;15.174;2023-10-31T10:03:43;0.93;;;0.93;;
4553;SDS011;2289;48.316;15.174;2023-10-31T10:06:12;0.97;;;0.80;;
4553;SDS011;2289;48.316;15.174;2023-10-31T10:08:41;1.33;;;0.97;;
4553;SDS011;2289;48.316;15.174;2023-10-31T10:11:10;2.73;;;1.27;;
4553;SDS011;2289;48.316;15.174;2023-10-31T10:13:41;1.57;;;1.30;;
4553;SDS011;2289;48.316;15.174;2023-10-31T10:16:10;3.57;;;1.70;;
4553;SDS011;2289;48.316;15.174;2023-10-31T10:18:39;1.93;;;1.10;;
4553;SDS011;2289;48.316;15.174;2023-10-31T10:21:08;1.47;;;1.37;;
4553;SDS011;2289;48.316;15.174;2023-10-31T10:23:38;1.97;;;1.77;;
4553;SDS011;2289;48.316;15.174;2023-10-31T10:26:06;1.40;;;1.30;;
4553;SDS011;2289;48.316;15.174;2023-10-31T10:28:36;5.40;;;1.73;;
4553;SDS011;2289;48.316;15.174;2023-10-31T10:31:06;3.87;;;2.13;;
4553;SDS011;2289;48.316;15.174;2023-10-31T10:33:35;1.70;;;1.60;;
4553;SDS011;2289;48.316;15.174;2023-10-31T10:36:05;1.67;;;1.57;;
4553;SDS011;2289;48.316;15.174;2023-10-31T10:38:34;1.93;;;1.67;;
4553;SDS011;2289;48.316;15.174;2023-10-31T10:41:05;2.43;;;1.40;;
4553;SDS011;2289;48.316;15.174;2023-10-31T10:43:36;1.63;;;1.50;;
4553;SDS011;2289;48.316;15.174;2023-10-31T10:46:07;1.63;;;1.40;;
4553;SDS011;2289;48.316;15.174;2023-10-31T10:48:39;1.40;;;1.30;;
4553;SDS011;2289;48.316;15.174;2023-10-31T10:51:11;1.43;;;1.33;;
4553;SDS011;2289;48.316;15.174;2023-10-31T10:53:44;2.07;;;1.10;;
4553;SDS011;2289;48.316;15.174;2023-10-31T10:56:20;1.87;;;1.10;;
4553;SDS011;2289;48.316;15.174;2023-10-31T10:59:01;1.67;;;1.47;;
4553;SDS011;2289;48.316;15.174;2023-10-31T11:01:33;7.13;;;1.40;;
4553;SDS011;2289;48.316;15.174;2023-10-31T11:04:04;1.07;;;1.00;;
4553;SDS011;2289;48.316;15.174;2023-10-31T11:06:34;1.00;;;0.90;;
4553;SDS011;2289;48.316;15.174;2023-10-31T11:09:05;1.90;;;0.77;;
4553;SDS011;2289;48.316;15.174;2023-10-31T11:11:34;0.70;;;0.70;;
4553;SDS011;2289;48.316;15.174;2023-10-31T11:14:04;0.60;;;0.60;;
4553;SDS011;2289;48.316;15.174;2023-10-31T11:16:41;3.13;;;0.80;;
4553;SDS011;2289;48.316;15.174;2023-10-31T11:19:12;0.70;;;0.60;;
4553;SDS011;2289;48.316;15.174;2023-10-31T11:24:31;0.80;;;0.73;;
4553;SDS011;2289;48.316;15.174;2023-10-31T11:27:01;0.70;;;0.70;;
4553;SDS011;2289;48.316;15.174;2023-10-31T11:29:32;0.70;;;0.70;;
4553;SDS011;2289;48.316;15.174;2023-10-31T11:32:05;1.33;;;0.90;;
4553;SDS011;2289;48.316;15.174;2023-10-31T11:34:38;3.27;;;0.90;;
4553;SDS011;2289;48.316;15.174;2023-10-31T11:37:24;0.93;;;0.90;;
4553;SDS011;2289;48.316;15.174;2023-10-31T11:42:49;1.00;;;0.63;;
4553;SDS011;2289;48.316;15.174;2023-10-31T11:45:29;0.90;;;0.90;;
4553;SDS011;2289;48.316;15.174;2023-10-31T11:48:01;1.07;;;0.90;;
4553;SDS011;2289;48.316;15.174;2023-10-31T11:50:31;3.63;;;1.90;;
4553;SDS011;2289;48.316;15.174;2023-10-31T11:53:02;1.17;;;1.07;;
4553;SDS011;2289;48.316;15.174;2023-10-31T11:55:33;1.30;;;0.90;;
4553;SDS011;2289;48.316;15.174;2023-10-31T11:58:16;1.50;;;1.40;;
4553;SDS011;2289;48.316;15.174;2023-10-31T12:00:46;2.60;;;1.80;;
4553;SDS011;2289;48.316;15.174;2023-10-31T12:03:20;3.40;;;1.87;;
4553;SDS011;2289;48.316;15.174;2023-10-31T12:05:50;1.10;;;1.00;;
4553;SDS011;2289;48.316;15.174;2023-10-31T12:08:26;1.70;;;1.60;;
4553;SDS011;2289;48.316;15.174;2023-10-31T12:11:08;0.90;;;0.90;;
4553;SDS011;2289;48.316;15.174;2023-10-31T12:13:40;1.43;;;1.33;;
4553;SDS011;2289;48.316;15.174;2023-10-31T12:16:09;1.67;;;1.00;;
4553;SDS011;2289;48.316;15.174;2023-10-31T12:18:41;2.50;;;0.80;;
4553;SDS011;2289;48.316;15.174;2023-10-31T12:21:10;1.10;;;0.80;;
4553;SDS011;2289;48.316;15.174;2023-10-31T12:23:42;0.83;;;0.83;;
4553;SDS011;2289;48.316;15.174;2023-10-31T12:26:10;9.37;;;5.70;;
4553;SDS011;2289;48.316;15.174;2023-10-31T12:28:42;8.73;;;5.07;;
4553;SDS011;2289;48.316;15.174;2023-10-31T12:31:10;11.93;;;7.13;;
4553;SDS011;2289;48.316;15.174;2023-10-31T12:33:41;6.77;;;4.50;;
4553;SDS011;2289;48.316;15.174;2023-10-31T12:36:10;5.90;;;2.90;;
4553;SDS011;2289;48.316;15.174;2023-10-31T12:38:39;8.33;;;2.07;;
4553;SDS011;2289;48.316;15.174;2023-10-31T12:41:08;8.60;;;1.73;;
4553;SDS011;2289;48.316;15.174;2023-10-31T12:43:37;2.50;;;1.30;;
4553;SDS011;2289;48.316;15.174;2023-10-31T12:46:25;0.90;;;0.90;;
4553;SDS011;2289;48.316;15.174;2023-10-31T12:48:57;2.67;;;1.70;;
4553;SDS011;2289;48.316;15.174;2023-10-31T12:51:29;1.43;;;1.30;;
4553;SDS011;2289;48.316;15.174;2023-10-31T12:53:58;0.90;;;0.90;;
4553;SDS011;2289;48.316;15.174;2023-10-31T12:56:39;3.40;;;1.77;;
4553;SDS011;2289;48.316;15.174;2023-10-31T12:59:08;1.30;;;1.20;;
4553;SDS011;2289;48.316;15.174;2023-10-31T13:01:42;1.53;;;1.10;;
4553;SDS011;2289;48.316;15.174;2023-10-31T13:04:23;1.07;;;0.90;;
4553;SDS011;2289;48.316;15.174;2023-10-31T13:06:56;2.30;;;1.17;;
4553;SDS011;2289;48.316;15.174;2023-10-31T13:09:29;1.07;;;0.97;;
4553;SDS011;2289;48.316;15.174;2023-10-31T13:11:59;0.90;;;0.80;;
4553;SDS011;2289;48.316;15.174;2023-10-31T13:14:29;2.03;;;0.80;;
4553;SDS011;2289;48.316;15.174;2023-10-31T13:16:58;2.50;;;0.90;;
4553;SDS011;2289;48.316;15.174;2023-10-31T13:19:28;1.10;;;1.10;;
4553;SDS011;2289;48.316;15.174;2023-10-31T13:21:57;2.13;;;1.07;;
4553;SDS011;2289;48.316;15.174;2023-10-31T13:24:25;1.20;;;1.10;;
4553;SDS011;2289;48.316;15.174;2023-10-31T13:26:57;1.23;;;0.90;;
4553;SDS011;2289;48.316;15.174;2023-10-31T13:29:26;1.07;;;0.80;;
4553;SDS011;2289;48.316;15.174;2023-10-31T13:31:55;1.20;;;1.10;;
4553;SDS011;2289;48.316;15.174;2023-10-31T13:34:24;0.90;;;0.90;;
4553;SDS011;2289;48.316;15.174;2023-10-31T13:36:54;1.60;;;1.50;;
4553;SDS011;2289;48.316;15.174;2023-10-31T13:39:23;2.13;;;1.20;;
4553;SDS011;2289;48.316;15.174;2023-10-31T13:41:52;1.70;;;1.60;;
4553;SDS011;2289;48.316;15.174;2023-10-31T13:44:21;1.33;;;1.03;;
4553;SDS011;2289;48.316;15.174;2023-10-31T13:46:49;1.20;;;1.10;;
4553;SDS011;2289;48.316;15.174;2023-10-31T13:49:19;1.07;;;0.83;;
4553;SDS011;2289;48.316;15.174;2023-10-31T13:51:48;1.10;;;0.80;;
4553;SDS011;2289;48.316;15.174;2023-10-31T13:54:19;0.77;;;0.77;;
4553;SDS011;2289;48.316;15.174;2023-10-31T13:56:48;1.00;;;0.90;;
4553;SDS011;2289;48.316;15.174;2023-10-31T13:59:17;1.13;;;1.00;;
4553;SDS011;2289;48.316;15.174;2023-10-31T14:01:47;0.73;;;0.73;;
4553;SDS011;2289;48.316;15.174;2023-10-31T14:04:17;0.67;;;0.67;;
4553;SDS011;2289;48.316;15.174;2023-10-31T14:06:49;1.03;;;0.83;;
4553;SDS011;2289;48.316;15.174;2023-10-31T14:09:20;1.53;;;1.00;;
4553;SDS011;2289;48.316;15.174;2023-10-31T14:11:48;5.03;;;4.13;;
4553;SDS011;2289;48.316;15.174;2023-10-31T14:14:17;2.00;;;1.00;;
4553;SDS011;2289;48.316;15.174;2023-10-31T14:16:47;5.17;;;1.17;;
4553;SDS011;2289;48.316;15.174;2023-10-31T14:19:17;1.70;;;1.20;;
4553;SDS011;2289;48.316;15.174;2023-10-31T14:21:46;1.97;;;1.10;;
4553;SDS011;2289;48.316;15.174;2023-10-31T14:24:15;0.97;;;0.83;;
4553;SDS011;2289;48.316;15.174;2023-10-31T14:26:46;1.10;;;1.00;;
4553;SDS011;2289;48.316;15.174;2023-10-31T14:29:14;1.63;;;1.13;;
4553;SDS011;2289;48.316;15.174;2023-10-31T14:31:44;1.00;;;1.00;;
4553;SDS011;2289;48.316;15.174;2023-10-31T14:34:13;1.10;;;1.10;;
4553;SDS011;2289;48.316;15.174;2023-10-31T14:36:42;0.90;;;0.90;;
4553;SDS011;2289;48.316;15.174;2023-10-31T14:39:11;2.10;;;1.43;;
4553;SDS011;2289;48.316;15.174;2023-10-31T14:41:40;2.00;;;1.77;;
4553;SDS011;2289;48.316;15.174;2023-10-31T14:44:09;1.53;;;1.30;;
4553;SDS011;2289;48.316;15.174;2023-10-31T14:46:38;1.53;;;1.23;;
4553;SDS011;2289;48.316;15.174;2023-10-31T14:49:07;1.90;;;1.80;;
4553;SDS011;2289;48.316;15.174;2023-10-31T14:51:36;1.97;;;1.87;;
4553;SDS011;2289;48.316;15.174;2023-10-31T14:54:05;1.77;;;1.67;;
4553;SDS011;2289;48.316;15.174;2023-10-31T14:56:35;6.47;;;1.87;;
4553;SDS011;2289;48.316;15.174;2023-10-31T14:59:04;2.20;;;2.00;;
4553;SDS011;2289;48.316;15.174;2023-10-31T15:01:36;2.80;;;2.00;;
4553;SDS011;2289;48.316;15.174;2023-10-31T15:04:05;1.87;;;1.77;;
4553;SDS011;2289;48.316;15.174;2023-10-31T15:06:34;2.23;;;2.03;;
4553;SDS011;2289;48.316;15.174;2023-10-31T15:09:03;2.20;;;1.80;;
4553;SDS011;2289;48.316;15.174;2023-10-31T15:11:33;2.40;;;2.20;;
4553;SDS011;2289;48.316;15.174;2023-10-31T15:14:03;4.60;;;3.03;;
4553;SDS011;2289;48.316;15.174;2023-10-31T15:16:32;3.47;;;2.17;;
4553;SDS011;2289;48.316;15.174;2023-10-31T15:19:03;2.53;;;1.83;;
4553;SDS011;2289;48.316;15.174;2023-10-31T15:21:33;3.40;;;2.60;;